Time;durP1;ratioP1;P1;durP2;ratioP2;P2;SDS_P1;SDS_P2;PMS_P1;PMS_P2;Temp;Humidity;BMP_temperature;BMP_pressure;BME280_temperature;BME280_humidity;BME280_pressure;Samples;Min_cycle;Max_cycle;Signal;HPM_P1;HPM_P2
2022/06/12 00:00:27;;;;;;;;;;;18.60;59.40;;;;;;5117049;28;19915;-60
2022/06/12 00:02:54;;;;;;;;;;;18.70;58.60;;;;;;5117294;28;19912;-58
2022/06/12 00:05:23;;;;;;;;;;;18.80;58.30;;;;;;5117222;28;19922;-62
2022/06/12 00:07:50;;;;;;;;;;;19.00;58.50;;;;;;5116954;28;19967;-63
2022/06/12 00:10:16;;;;;;;;;;;19.10;58.70;;;;;;5116686;28;20415;-59
2022/06/12 00:12:44;;;;;;;;;;;19.10;58.70;;;;;;5116963;28;19952;-60
2022/06/12 00:15:12;;;;;;;;;;;19.10;57.90;;;;;;5116824;28;20438;-53
2022/06/12 00:17:41;;;;;;;;;;;19.20;57.60;;;;;;5116788;28;19908;-55
2022/06/12 00:20:09;;;;;;;;;;;19.30;57.10;;;;;;5116521;28;19908;-53
2022/06/12 00:22:36;;;;;;;;;;;19.30;57.80;;;;;;5116349;28;19912;-58
2022/06/12 00:25:04;;;;;;;;;;;19.30;57.60;;;;;;5116271;28;20360;-56
2022/06/12 00:27:30;;;;;;;;;;;19.50;57.60;;;;;;5116379;28;19980;-59
2022/06/12 00:29:57;;;;;;;;;;;19.70;57.10;;;;;;5116484;28;19919;-54
2022/06/12 00:32:29;;;;;;;;;;;19.80;57.30;;;;;;5116368;28;20357;-55
2022/06/12 00:34:56;;;;;;;;;;;20.00;56.90;;;;;;5116184;28;20002;-57
2022/06/12 00:37:23;;;;;;;;;;;20.10;56.40;;;;;;5104448;28;19908;-54
2022/06/12 00:39:51;;;;;;;;;;;20.00;55.60;;;;;;5095877;28;20351;-58
2022/06/12 00:42:32;;;;;;;;;;;20.10;55.80;;;;;;5095709;28;19984;-52
2022/06/12 00:45:00;;;;;;;;;;;20.10;56.10;;;;;;5095113;28;19987;-57
2022/06/12 00:47:28;;;;;;;;;;;20.20;55.30;;;;;;5095333;28;19934;-59
2022/06/12 00:50:00;;;;;;;;;;;20.20;55.80;;;;;;5095196;28;19908;-59
2022/06/12 00:52:33;;;;;;;;;;;20.20;54.60;;;;;;5095142;28;19912;-57
2022/06/12 00:55:12;;;;;;;;;;;20.20;54.60;;;;;;5095735;28;19908;-56
2022/06/12 00:57:39;;;;;;;;;;;20.20;56.10;;;;;;5094919;28;19908;-52
2022/06/12 01:00:12;;;;;;;;;;;20.20;56.10;;;;;;5095044;28;19987;-58
2022/06/12 01:02:39;;;;;;;;;;;20.30;55.30;;;;;;5095272;28;19908;-60
2022/06/12 01:07:53;;;;;;;;;;;20.30;56.00;;;;;;5094045;28;19927;-61
2022/06/12 01:10:20;;;;;;;;;;;20.20;55.60;;;;;;5095069;28;19995;-57
2022/06/12 01:13:00;;;;;;;;;;;20.40;55.50;;;;;;5094607;28;19951;-58
2022/06/12 01:15:29;;;;;;;;;;;20.50;55.20;;;;;;5094999;28;19915;-53
2022/06/12 01:17:56;;;;;;;;;;;20.60;54.50;;;;;;5095366;28;20312;-60
2022/06/12 01:20:25;;;;;;;;;;;20.80;55.20;;;;;;5095052;28;19915;-48
2022/06/12 01:22:58;;;;;;;;;;;20.80;54.80;;;;;;5095148;28;20366;-45
2022/06/12 01:25:25;;;;;;;;;;;20.80;54.00;;;;;;5094819;28;19938;-45
2022/06/12 01:27:52;;;;;;;;;;;20.90;54.40;;;;;;5094936;28;19908;-49
2022/06/12 01:30:25;;;;;;;;;;;21.10;53.30;;;;;;5090223;28;20063;-46
2022/06/12 01:33:26;;;;;;;;;;;21.20;54.50;;;;;;5088826;28;20416;-42
2022/06/12 01:35:53;;;;;;;;;;;21.30;53.00;;;;;;5029340;28;19910;-47
2022/06/12 01:38:23;;;;;;;;;;;21.20;54.40;;;;;;5078362;28;19912;-48
2022/06/12 01:40:53;;;;;;;;;;;21.40;52.50;;;;;;5091325;28;19908;-41
2022/06/12 01:43:40;;;;;;;;;;;21.60;54.20;;;;;;5089611;28;20018;-49
2022/06/12 01:46:24;;;;;;;;;;;21.50;53.40;;;;;;5069091;28;20416;-61
2022/06/12 01:48:57;;;;;;;;;;;21.50;53.90;;;;;;5091064;28;19999;-44
2022/06/12 01:51:33;;;;;;;;;;;21.70;53.50;;;;;;5087896;28;20014;-53
2022/06/12 01:54:04;;;;;;;;;;;21.70;52.60;;;;;;5091373;28;19908;-49
2022/06/12 01:56:37;;;;;;;;;;;21.70;52.50;;;;;;5090738;28;19916;-52
2022/06/12 01:59:16;;;;;;;;;;;21.70;53.70;;;;;;5088871;28;19908;-59
2022/06/12 02:01:50;;;;;;;;;;;21.80;54.20;;;;;;5088755;28;20319;-49
2022/06/12 02:04:22;;;;;;;;;;;21.90;52.00;;;;;;5090665;28;19930;-46
2022/06/12 02:06:53;;;;;;;;;;;21.80;54.00;;;;;;5091288;28;19931;-53
2022/06/12 02:09:27;;;;;;;;;;;21.90;52.40;;;;;;5077949;28;19921;-51
2022/06/12 02:14:42;;;;;;;;;;;21.80;53.50;;;;;;5067736;28;19919;-50
2022/06/12 02:17:12;;;;;;;;;;;21.80;52.40;;;;;;5075795;28;19908;-56
2022/06/12 02:19:40;;;;;;;;;;;21.80;53.10;;;;;;5071195;28;19909;-46
2022/06/12 02:22:18;;;;;;;;;;;21.90;52.20;;;;;;5069601;28;19916;-58
2022/06/12 02:24:47;;;;;;;;;;;21.90;52.60;;;;;;5070201;28;19921;-51
2022/06/12 02:27:15;;;;;;;;;;;22.00;52.00;;;;;;5070447;28;20000;-54
2022/06/12 02:29:45;;;;;;;;;;;21.90;53.90;;;;;;5077144;28;20287;-60
2022/06/12 02:32:18;;;;;;;;;;;22.00;52.40;;;;;;5067872;28;19920;-57
2022/06/12 02:34:47;;;;;;;;;;;22.00;53.70;;;;;;5070630;28;19952;-59
2022/06/12 02:37:17;;;;;;;;;;;22.00;54.30;;;;;;5073401;28;19913;-57
2022/06/12 02:39:47;;;;;;;;;;;22.00;53.60;;;;;;5071585;28;20267;-54
2022/06/12 02:42:39;;;;;;;;;;;22.00;53.40;;;;;;5071034;28;19992;-55
2022/06/12 02:45:25;;;;;;;;;;;21.90;54.30;;;;;;5067425;28;20387;-47
2022/06/12 02:47:52;;;;;;;;;;;21.80;53.00;;;;;;5070331;28;20416;-60
2022/06/12 02:50:22;;;;;;;;;;;21.90;53.30;;;;;;5073831;28;19970;-54
2022/06/12 02:53:10;;;;;;;;;;;22.00;53.20;;;;;;5071061;28;19909;-57
2022/06/12 02:55:44;;;;;;;;;;;22.20;53.10;;;;;;5086008;28;20014;-43
2022/06/12 02:58:40;;;;;;;;;;;22.20;53.70;;;;;;5086380;28;19912;-52
2022/06/12 03:01:07;;;;;;;;;;;22.10;52.80;;;;;;5023210;28;19921;-57
2022/06/12 03:03:48;;;;;;;;;;;22.10;54.30;;;;;;5084879;28;20010;-57
2022/06/12 03:06:17;;;;;;;;;;;22.00;54.30;;;;;;5083174;28;19912;-56
2022/06/12 03:08:51;;;;;;;;;;;22.20;52.90;;;;;;5084407;28;20220;-57
2022/06/12 03:11:19;;;;;;;;;;;22.30;53.80;;;;;;5083426;28;19966;-58
2022/06/12 03:13:47;;;;;;;;;;;21.90;52.30;;;;;;5063259;28;19927;-58
2022/06/12 03:16:17;;;;;;;;;;;21.70;52.80;;;;;;5085788;28;19934;-54
2022/06/12 03:18:48;;;;;;;;;;;21.60;52.70;;;;;;5092101;28;20378;-57
2022/06/12 03:21:17;;;;;;;;;;;21.50;51.50;;;;;;5091495;28;19912;-57
2022/06/12 03:24:02;;;;;;;;;;;21.50;53.50;;;;;;5091677;28;20270;-53
2022/06/12 03:26:38;;;;;;;;;;;21.50;51.80;;;;;;5092655;28;19908;-52
2022/06/12 03:29:11;;;;;;;;;;;21.60;51.30;;;;;;5092492;28;19957;-58
2022/06/12 03:32:06;;;;;;;;;;;21.50;51.10;;;;;;5099000;28;19990;-53
2022/06/12 03:34:38;;;;;;;;;;;21.60;52.00;;;;;;5085745;28;19915;-57
2022/06/12 03:37:14;;;;;;;;;;;21.50;50.10;;;;;;5099248;28;19908;-56
2022/06/12 03:39:43;;;;;;;;;;;21.00;48.60;;;;;;5098810;28;19908;-54
2022/06/12 03:42:18;;;;;;;;;;;21.00;52.10;;;;;;5099203;28;19908;-51
2022/06/12 03:44:51;;;;;;;;;;;20.70;53.10;;;;;;5098963;28;19920;-42
2022/06/12 03:47:29;;;;;;;;;;;20.30;51.80;;;;;;5080813;28;19912;-41
2022/06/12 03:49:58;;;;;;;;;;;20.30;51.90;;;;;;5098885;28;19954;-48
2022/06/12 03:52:45;;;;;;;;;;;20.60;53.30;;;;;;5098902;28;19964;-43
2022/06/12 03:58:19;;;;;;;;;;;20.80;53.50;;;;;;5095918;28;20334;-48
2022/06/12 04:00:48;;;;;;;;;;;20.80;52.50;;;;;;5099059;28;20347;-47
2022/06/12 04:03:21;;;;;;;;;;;21.00;49.00;;;;;;5099327;28;19908;-52
2022/06/12 04:05:58;;;;;;;;;;;20.70;48.80;;;;;;5099291;28;19912;-56
2022/06/12 04:08:26;;;;;;;;;;;20.80;50.80;;;;;;5097151;28;20333;-47
2022/06/12 04:10:54;;;;;;;;;;;21.00;48.60;;;;;;5098713;28;19946;-52
2022/06/12 04:13:22;;;;;;;;;;;20.90;49.00;;;;;;5098686;28;19984;-48
2022/06/12 04:15:54;;;;;;;;;;;20.90;51.60;;;;;;5098832;28;20338;-50
2022/06/12 04:18:25;;;;;;;;;;;20.80;52.60;;;;;;5098280;28;20212;-51
2022/06/12 04:20:57;;;;;;;;;;;20.90;50.20;;;;;;5099033;28;19961;-51
2022/06/12 04:23:44;;;;;;;;;;;20.70;50.30;;;;;;5098665;28;19924;-51
2022/06/12 04:26:22;;;;;;;;;;;20.40;50.70;;;;;;5098303;28;19918;-51
2022/06/12 04:28:55;;;;;;;;;;;20.60;51.00;;;;;;5098467;28;19939;-51
2022/06/12 04:31:22;;;;;;;;;;;20.90;50.10;;;;;;5098797;28;20367;-56
2022/06/12 04:34:00;;;;;;;;;;;20.90;49.50;;;;;;5099099;28;20400;-51
2022/06/12 04:36:27;;;;;;;;;;;21.10;49.80;;;;;;5098796;28;20359;-51
2022/06/12 04:38:54;;;;;;;;;;;21.00;52.40;;;;;;5098542;28;20424;-54
2022/06/12 04:41:26;;;;;;;;;;;21.20;50.40;;;;;;5097093;28;20002;-49
2022/06/12 04:43:52;;;;;;;;;;;21.10;52.70;;;;;;5095068;28;19917;-56
2022/06/12 04:46:20;;;;;;;;;;;21.10;55.10;;;;;;5095190;28;19919;-54
2022/06/12 04:48:47;;;;;;;;;;;21.10;55.50;;;;;;5094889;28;19994;-51
2022/06/12 04:51:15;;;;;;;;;;;21.40;54.40;;;;;;5095279;28;20003;-56
2022/06/12 04:53:42;;;;;;;;;;;21.50;54.60;;;;;;5095352;28;19920;-54
2022/06/12 04:56:10;;;;;;;;;;;21.60;51.10;;;;;;5095014;28;20298;-46
2022/06/12 04:58:38;;;;;;;;;;;21.60;53.90;;;;;;5094439;28;19991;-48
2022/06/12 05:01:05;;;;;;;;;;;21.50;53.60;;;;;;5095110;28;19908;-46
2022/06/12 05:03:32;;;;;;;;;;;21.50;53.90;;;;;;5094894;28;19912;-46
2022/06/12 05:05:58;;;;;;;;;;;21.50;54.60;;;;;;5095327;28;20274;-47
2022/06/12 05:08:26;;;;;;;;;;;21.50;54.20;;;;;;5095062;28;20352;-46
2022/06/12 05:10:53;;;;;;;;;;;21.40;54.10;;;;;;5095251;28;19930;-54
2022/06/12 05:13:20;;;;;;;;;;;21.40;53.10;;;;;;5094353;28;19908;-44
2022/06/12 05:15:47;;;;;;;;;;;21.40;53.30;;;;;;5094532;28;20057;-48
2022/06/12 05:18:15;;;;;;;;;;;21.30;53.00;;;;;;5095206;28;19916;-48
2022/06/12 05:20:43;;;;;;;;;;;21.20;54.30;;;;;;5094452;28;19960;-44
2022/06/12 05:23:10;;;;;;;;;;;21.10;54.60;;;;;;5094401;28;20011;-39
2022/06/12 05:25:37;;;;;;;;;;;21.00;54.90;;;;;;5094252;28;19919;-37
2022/06/12 05:28:03;;;;;;;;;;;20.90;55.10;;;;;;5094091;28;20384;-38
2022/06/12 05:30:32;;;;;;;;;;;20.80;55.70;;;;;;5093956;28;19961;-39
2022/06/12 05:33:00;;;;;;;;;;;20.80;55.70;;;;;;5094306;28;19908;-45
2022/06/12 05:35:28;;;;;;;;;;;20.70;54.70;;;;;;5094405;28;19953;-42
2022/06/12 05:37:55;;;;;;;;;;;20.60;55.90;;;;;;5094710;28;20003;-43
2022/06/12 05:40:24;;;;;;;;;;;20.40;55.00;;;;;;5094116;28;19924;-45
2022/06/12 05:42:50;;;;;;;;;;;20.40;55.40;;;;;;5094260;28;20060;-43
2022/06/12 05:45:20;;;;;;;;;;;20.20;54.50;;;;;;5093905;28;19973;-45
2022/06/12 05:47:51;;;;;;;;;;;20.20;55.70;;;;;;5076076;28;19922;-48
2022/06/12 05:50:19;;;;;;;;;;;20.00;56.20;;;;;;5093906;28;19970;-52
2022/06/12 05:52:45;;;;;;;;;;;20.00;55.90;;;;;;5093465;28;20362;-48
2022/06/12 05:55:12;;;;;;;;;;;19.90;56.10;;;;;;5094305;28;19961;-41
2022/06/12 05:57:39;;;;;;;;;;;19.80;56.60;;;;;;5093918;28;19994;-49
2022/06/12 06:00:08;;;;;;;;;;;19.60;56.20;;;;;;5084822;28;19934;-49
2022/06/12 06:02:36;;;;;;;;;;;19.60;55.50;;;;;;5070500;28;19955;-46
2022/06/12 06:05:03;;;;;;;;;;;19.50;56.40;;;;;;5070877;28;19916;-53
2022/06/12 06:07:29;;;;;;;;;;;19.40;56.50;;;;;;5073521;28;19908;-51
2022/06/12 06:09:56;;;;;;;;;;;19.30;56.70;;;;;;5092171;28;19962;-50
2022/06/12 06:12:23;;;;;;;;;;;19.20;56.10;;;;;;5080507;28;19916;-43
2022/06/12 06:14:50;;;;;;;;;;;19.10;55.60;;;;;;5088399;28;20363;-48
2022/06/12 06:17:18;;;;;;;;;;;19.10;57.10;;;;;;5089116;28;19916;-43
2022/06/12 06:19:44;;;;;;;;;;;19.00;57.60;;;;;;5090864;28;20011;-44
2022/06/12 06:22:16;;;;;;;;;;;18.90;57.20;;;;;;5090269;28;20385;-45
2022/06/12 06:24:43;;;;;;;;;;;18.80;57.10;;;;;;5085855;28;19923;-60
2022/06/12 06:27:14;;;;;;;;;;;18.70;58.20;;;;;;5091724;28;19915;-46
2022/06/12 06:29:41;;;;;;;;;;;18.70;59.00;;;;;;5090170;28;19908;-47
2022/06/12 06:32:08;;;;;;;;;;;18.60;58.80;;;;;;5090215;28;20008;-44
2022/06/12 06:34:36;;;;;;;;;;;18.50;59.80;;;;;;5082690;28;19915;-60
2022/06/12 06:37:04;;;;;;;;;;;18.50;59.20;;;;;;5091697;28;19953;-53
2022/06/12 06:39:30;;;;;;;;;;;18.40;60.10;;;;;;5091725;28;20305;-57
2022/06/12 06:41:57;;;;;;;;;;;18.40;59.90;;;;;;5091315;28;19919;-52
2022/06/12 06:47:09;;;;;;;;;;;18.30;60.20;;;;;;5092152;28;19915;-61
2022/06/12 06:49:36;;;;;;;;;;;18.20;61.00;;;;;;5089057;28;20004;-52
2022/06/12 06:52:02;;;;;;;;;;;18.10;60.70;;;;;;5090905;28;19995;-55
2022/06/12 06:54:29;;;;;;;;;;;18.10;61.00;;;;;;5080935;28;19912;-53
2022/06/12 06:56:56;;;;;;;;;;;18.00;61.20;;;;;;5088944;28;19912;-54
2022/06/12 06:59:23;;;;;;;;;;;18.00;61.60;;;;;;5072988;28;19908;-56
2022/06/12 07:01:50;;;;;;;;;;;17.90;61.90;;;;;;5091800;28;19920;-52
2022/06/12 07:04:16;;;;;;;;;;;17.90;62.40;;;;;;5081632;28;19923;-49
2022/06/12 07:06:43;;;;;;;;;;;17.80;62.70;;;;;;5090885;28;19916;-57
2022/06/12 07:09:10;;;;;;;;;;;17.80;62.90;;;;;;5091224;28;20286;-50
2022/06/12 07:11:36;;;;;;;;;;;17.80;63.20;;;;;;5091146;28;20392;-55
2022/06/12 07:14:03;;;;;;;;;;;17.70;63.30;;;;;;5081972;28;19943;-44
2022/06/12 07:16:31;;;;;;;;;;;17.70;63.40;;;;;;5090505;28;19982;-52
2022/06/12 07:18:58;;;;;;;;;;;17.70;63.80;;;;;;5088851;28;19988;-58
2022/06/12 07:21:25;;;;;;;;;;;17.60;63.70;;;;;;5086348;28;20375;-48
2022/06/12 07:23:52;;;;;;;;;;;17.60;63.70;;;;;;5081934;28;20014;-53
2022/06/12 07:26:20;;;;;;;;;;;17.60;63.90;;;;;;5090920;28;19916;-58
2022/06/12 07:28:47;;;;;;;;;;;17.50;64.00;;;;;;5090087;28;19919;-59
2022/06/12 07:31:14;;;;;;;;;;;17.40;64.10;;;;;;5091643;28;19923;-61
2022/06/12 07:33:40;;;;;;;;;;;17.40;64.90;;;;;;5081959;28;20282;-53
2022/06/12 07:36:09;;;;;;;;;;;17.40;64.40;;;;;;5072194;28;19956;-54
2022/06/12 07:38:36;;;;;;;;;;;17.40;64.50;;;;;;5072840;28;19915;-56
2022/06/12 07:41:04;;;;;;;;;;;17.30;64.10;;;;;;5090897;28;19956;-58
2022/06/12 07:43:35;;;;;;;;;;;17.30;64.30;;;;;;5077757;28;19908;-44
2022/06/12 07:46:06;;;;;;;;;;;17.30;64.60;;;;;;5087764;28;19919;-55
2022/06/12 07:48:33;;;;;;;;;;;17.30;64.80;;;;;;5090861;28;19908;-49
2022/06/12 07:51:01;;;;;;;;;;;17.20;65.10;;;;;;5091004;28;19931;-57
2022/06/12 07:53:28;;;;;;;;;;;17.20;65.40;;;;;;5081660;28;20279;-49
2022/06/12 07:55:55;;;;;;;;;;;17.20;65.20;;;;;;5091427;28;20373;-60
2022/06/12 07:58:25;;;;;;;;;;;17.20;65.30;;;;;;5092380;28;20350;-56
2022/06/12 08:00:53;;;;;;;;;;;17.10;65.20;;;;;;5092104;28;19943;-55
2022/06/12 08:03:20;;;;;;;;;;;17.10;65.10;;;;;;5090992;28;19908;-56
2022/06/12 08:05:47;;;;;;;;;;;17.00;65.80;;;;;;5092449;28;19920;-58
2022/06/12 08:08:14;;;;;;;;;;;17.00;65.60;;;;;;5091534;28;19966;-48
2022/06/12 08:10:41;;;;;;;;;;;16.90;66.10;;;;;;5091031;28;20010;-57
2022/06/12 08:13:10;;;;;;;;;;;16.90;65.80;;;;;;5091878;28;19908;-61
2022/06/12 08:15:38;;;;;;;;;;;16.80;65.60;;;;;;5092314;28;19912;-59
2022/06/12 08:18:05;;;;;;;;;;;16.80;65.90;;;;;;5096251;28;19908;-60
2022/06/12 08:20:33;;;;;;;;;;;16.80;66.10;;;;;;5096082;28;19908;-60
2022/06/12 08:23:05;;;;;;;;;;;16.70;66.20;;;;;;5094970;28;19914;-54
2022/06/12 08:25:34;;;;;;;;;;;16.70;66.10;;;;;;5096144;28;19922;-56
2022/06/12 08:28:01;;;;;;;;;;;16.70;66.30;;;;;;5096186;28;20313;-55
2022/06/12 08:30:28;;;;;;;;;;;16.60;66.20;;;;;;5095083;28;19912;-53
2022/06/12 08:32:55;;;;;;;;;;;16.60;66.60;;;;;;5077936;28;20252;-56
2022/06/12 08:35:25;;;;;;;;;;;16.50;66.40;;;;;;5095781;28;19951;-49
2022/06/12 08:37:52;;;;;;;;;;;16.50;66.70;;;;;;5095836;28;19915;-59
2022/06/12 08:40:23;;;;;;;;;;;16.50;66.50;;;;;;5095888;28;19908;-60
2022/06/12 08:43:04;;;;;;;;;;;16.50;66.80;;;;;;5095939;28;20002;-53
2022/06/12 08:45:36;;;;;;;;;;;16.50;66.60;;;;;;5095767;28;20001;-54
2022/06/12 08:48:08;;;;;;;;;;;16.40;66.80;;;;;;5095511;28;19953;-60
2022/06/12 08:50:38;;;;;;;;;;;16.40;66.80;;;;;;5095177;28;19973;-59
2022/06/12 08:53:07;;;;;;;;;;;16.40;67.00;;;;;;5095297;28;19909;-58
2022/06/12 08:55:46;;;;;;;;;;;16.30;67.00;;;;;;5094995;28;19909;-55
2022/06/12 08:58:33;;;;;;;;;;;16.30;67.00;;;;;;5095384;28;19947;-57
2022/06/12 09:01:00;;;;;;;;;;;16.30;67.20;;;;;;5095560;28;19908;-55
2022/06/12 09:03:29;;;;;;;;;;;16.20;67.00;;;;;;5095576;28;19935;-59
2022/06/12 09:06:25;;;;;;;;;;;16.20;67.10;;;;;;5095141;28;20398;-60
2022/06/12 09:08:54;;;;;;;;;;;16.20;67.50;;;;;;5081879;28;19973;-53
2022/06/12 09:11:33;;;;;;;;;;;16.20;68.10;;;;;;5095264;28;19991;-61
2022/06/12 09:14:15;;;;;;;;;;;16.20;67.30;;;;;;5094735;28;20351;-61
2022/06/12 09:16:44;;;;;;;;;;;16.10;67.60;;;;;;5094908;28;19912;-60
2022/06/12 09:19:20;;;;;;;;;;;16.10;67.60;;;;;;5095275;28;19908;-59
2022/06/12 09:22:04;;;;;;;;;;;16.10;67.80;;;;;;5094805;28;19912;-54
2022/06/12 09:24:34;;;;;;;;;;;16.10;67.80;;;;;;5094803;28;19916;-57
2022/06/12 09:27:21;;;;;;;;;;;16.10;67.90;;;;;;5076767;28;20281;-54
2022/06/12 09:30:03;;;;;;;;;;;16.00;67.60;;;;;;5072927;28;20323;-57
2022/06/12 09:32:54;;;;;;;;;;;16.00;68.00;;;;;;5095034;28;19987;-54
2022/06/12 09:35:21;;;;;;;;;;;16.00;67.90;;;;;;5066850;28;19961;-45
2022/06/12 09:38:19;;;;;;;;;;;16.00;68.10;;;;;;5094764;28;19912;-51
2022/06/12 09:40:54;;;;;;;;;;;15.90;68.10;;;;;;5094847;28;19912;-55
2022/06/12 09:43:47;;;;;;;;;;;15.90;68.20;;;;;;5094910;28;19947;-57
2022/06/12 09:46:32;;;;;;;;;;;15.90;68.10;;;;;;5070999;28;19913;-46
2022/06/12 09:49:15;;;;;;;;;;;15.90;68.30;;;;;;5094709;28;20007;-52
2022/06/12 09:52:00;;;;;;;;;;;15.90;68.20;;;;;;5095104;28;19915;-56
2022/06/12 09:54:44;;;;;;;;;;;15.90;68.60;;;;;;5094318;28;19915;-53
2022/06/12 09:57:34;;;;;;;;;;;15.80;68.60;;;;;;5094332;28;19915;-50
2022/06/12 10:00:00;;;;;;;;;;;15.80;68.50;;;;;;5086730;28;19915;-53
2022/06/12 10:02:50;;;;;;;;;;;15.80;68.60;;;;;;5094277;28;19912;-62
2022/06/12 10:05:25;;;;;;;;;;;15.80;68.60;;;;;;5094175;28;19918;-58
2022/06/12 10:08:05;;;;;;;;;;;15.80;68.80;;;;;;5094228;28;20097;-60
2022/06/12 10:10:32;;;;;;;;;;;15.70;68.80;;;;;;5094342;28;19915;-53
2022/06/12 10:13:04;;;;;;;;;;;15.70;68.80;;;;;;5093986;28;19934;-58
2022/06/12 10:15:33;;;;;;;;;;;15.70;68.90;;;;;;5093923;28;19908;-53
2022/06/12 10:18:05;;;;;;;;;;;15.70;68.70;;;;;;5094142;28;19966;-58
2022/06/12 10:20:44;;;;;;;;;;;15.70;69.00;;;;;;5094212;28;20377;-58
2022/06/12 10:23:11;;;;;;;;;;;15.70;69.00;;;;;;5094213;28;19914;-60
2022/06/12 10:25:43;;;;;;;;;;;15.70;69.00;;;;;;5093472;28;20305;-62
2022/06/12 10:28:16;;;;;;;;;;;15.60;69.00;;;;;;5093998;28;19998;-60
2022/06/12 10:30:44;;;;;;;;;;;15.70;69.10;;;;;;5094067;28;19931;-62
2022/06/12 10:33:18;;;;;;;;;;;15.60;69.20;;;;;;5094180;28;20339;-60
2022/06/12 10:35:50;;;;;;;;;;;15.60;69.10;;;;;;5093732;28;19994;-61
2022/06/12 10:38:18;;;;;;;;;;;15.60;69.20;;;;;;5093703;28;19953;-59
2022/06/12 10:40:49;;;;;;;;;;;15.60;69.20;;;;;;5092641;28;19951;-61
2022/06/12 10:43:39;;;;;;;;;;;15.60;69.30;;;;;;5093870;28;19914;-62
2022/06/12 10:46:07;;;;;;;;;;;15.60;69.40;;;;;;5085731;28;20366;-61
2022/06/12 10:48:36;;;;;;;;;;;15.60;69.50;;;;;;5093449;28;19914;-58
2022/06/12 10:51:15;;;;;;;;;;;15.50;69.50;;;;;;5093648;28;19990;-62
2022/06/12 10:53:41;;;;;;;;;;;15.50;69.50;;;;;;5093697;28;19947;-62
2022/06/12 10:56:16;;;;;;;;;;;15.50;69.60;;;;;;5090518;28;19912;-56
2022/06/12 10:58:52;;;;;;;;;;;15.50;69.70;;;;;;5093411;28;20355;-55
2022/06/12 11:01:19;;;;;;;;;;;15.50;69.70;;;;;;5093796;28;19914;-60
2022/06/12 11:03:54;;;;;;;;;;;15.40;69.70;;;;;;5093073;28;19944;-59
2022/06/12 11:06:31;;;;;;;;;;;15.40;69.70;;;;;;5093383;28;20412;-57
2022/06/12 11:09:07;;;;;;;;;;;15.50;69.80;;;;;;5106180;28;19919;-54
2022/06/12 11:11:52;;;;;;;;;;;15.40;69.90;;;;;;5113861;28;19908;-59
2022/06/12 11:14:30;;;;;;;;;;;15.40;70.00;;;;;;5113777;28;19919;-61
2022/06/12 11:16:57;;;;;;;;;;;15.40;69.90;;;;;;5113803;28;19947;-55
2022/06/12 11:19:35;;;;;;;;;;;15.40;70.00;;;;;;5114048;28;19907;-61
2022/06/12 11:22:11;;;;;;;;;;;15.30;70.10;;;;;;5113709;28;19955;-60
2022/06/12 11:25:00;;;;;;;;;;;15.40;70.10;;;;;;5113483;28;20327;-59
2022/06/12 11:27:29;;;;;;;;;;;15.40;70.10;;;;;;5114069;28;19912;-62
2022/06/12 11:30:02;;;;;;;;;;;15.30;70.20;;;;;;5113694;28;19930;-61
2022/06/12 11:32:41;;;;;;;;;;;15.30;70.30;;;;;;5113428;28;20300;-61
2022/06/12 11:35:27;;;;;;;;;;;15.30;70.40;;;;;;5113957;28;19950;-60
2022/06/12 11:38:00;;;;;;;;;;;15.30;70.40;;;;;;5113718;28;19911;-60
2022/06/12 11:40:53;;;;;;;;;;;15.30;70.60;;;;;;5113245;28;19954;-59
2022/06/12 11:43:19;;;;;;;;;;;15.30;70.60;;;;;;5113535;28;20004;-60
2022/06/12 11:45:58;;;;;;;;;;;15.30;70.60;;;;;;5113610;28;19916;-62
2022/06/12 11:48:24;;;;;;;;;;;15.20;70.60;;;;;;5113651;28;20362;-50
2022/06/12 11:50:57;;;;;;;;;;;15.20;70.80;;;;;;5114541;28;19955;-62
2022/06/12 11:53:23;;;;;;;;;;;15.20;70.90;;;;;;5117981;28;19908;-61
2022/06/12 11:55:57;;;;;;;;;;;15.20;70.90;;;;;;5117759;28;20052;-59
2022/06/12 11:58:31;;;;;;;;;;;15.20;70.90;;;;;;5117529;28;20429;-62
2022/06/12 12:01:09;;;;;;;;;;;15.20;71.00;;;;;;5117064;28;19908;-63
2022/06/12 12:03:40;;;;;;;;;;;15.20;71.10;;;;;;5117675;28;20080;-57
2022/06/12 12:06:21;;;;;;;;;;;15.20;71.10;;;;;;5117568;28;19923;-64
2022/06/12 12:08:55;;;;;;;;;;;15.10;71.10;;;;;;5116738;28;19958;-64
2022/06/12 12:11:28;;;;;;;;;;;15.10;71.70;;;;;;5117277;28;19908;-63
2022/06/12 12:13:57;;;;;;;;;;;15.10;71.10;;;;;;5117185;28;20351;-60
2022/06/12 12:16:41;;;;;;;;;;;15.20;71.20;;;;;;5117078;28;19914;-64
2022/06/12 12:19:17;;;;;;;;;;;15.10;71.20;;;;;;5117245;28;20020;-59
2022/06/12 12:22:10;;;;;;;;;;;15.10;71.20;;;;;;5117013;28;19942;-56
2022/06/12 12:24:42;;;;;;;;;;;15.00;71.20;;;;;;5107382;28;19999;-58
2022/06/12 12:27:15;;;;;;;;;;;15.00;71.40;;;;;;5117290;28;19924;-60
2022/06/12 12:29:42;;;;;;;;;;;15.00;71.40;;;;;;5116935;28;19915;-60
2022/06/12 12:32:10;;;;;;;;;;;15.00;71.40;;;;;;5116962;27;19912;-58
2022/06/12 12:34:39;;;;;;;;;;;15.00;71.40;;;;;;5116556;28;19912;-49
2022/06/12 12:42:43;;;;;;;;;;;15.00;71.60;;;;;;5116976;28;19915;-60
2022/06/12 12:45:24;;;;;;;;;;;15.00;71.70;;;;;;5116298;28;19915;-60
2022/06/12 12:48:09;;;;;;;;;;;14.90;71.60;;;;;;5116384;28;19955;-58
2022/06/12 12:50:45;;;;;;;;;;;14.90;71.60;;;;;;5116229;28;20324;-55
2022/06/12 12:53:31;;;;;;;;;;;14.90;71.80;;;;;;5116800;28;19907;-60
2022/06/12 12:55:59;;;;;;;;;;;14.90;71.80;;;;;;5116270;28;19956;-57
2022/06/12 12:58:26;;;;;;;;;;;14.90;71.80;;;;;;5116147;28;19908;-62
2022/06/12 13:01:10;;;;;;;;;;;14.90;71.90;;;;;;5115950;28;19907;-60
2022/06/12 13:03:40;;;;;;;;;;;14.90;71.80;;;;;;5115369;28;19960;-59
2022/06/12 13:06:25;;;;;;;;;;;14.90;71.80;;;;;;5116245;28;20359;-57
2022/06/12 13:08:51;;;;;;;;;;;14.80;71.90;;;;;;5116027;28;19926;-58
2022/06/12 13:11:37;;;;;;;;;;;14.80;71.90;;;;;;5114849;28;20350;-51
2022/06/12 13:14:04;;;;;;;;;;;14.80;71.90;;;;;;5116588;28;19915;-49
2022/06/12 13:16:40;;;;;;;;;;;14.80;72.00;;;;;;5115981;28;19908;-56
2022/06/12 13:19:07;;;;;;;;;;;14.80;72.00;;;;;;5115766;28;19907;-59
2022/06/12 13:21:42;;;;;;;;;;;14.80;72.10;;;;;;5116052;28;19958;-53
2022/06/12 13:24:44;;;;;;;;;;;14.80;72.10;;;;;;5116073;28;19916;-52
2022/06/12 13:27:26;;;;;;;;;;;14.80;72.10;;;;;;5093481;28;19915;-47
2022/06/12 13:29:54;;;;;;;;;;;14.70;72.20;;;;;;5113581;28;19914;-49
2022/06/12 13:32:31;;;;;;;;;;;14.70;72.30;;;;;;5115905;28;19908;-49
2022/06/12 13:34:59;;;;;;;;;;;14.70;72.40;;;;;;5115685;28;20350;-48
2022/06/12 13:37:27;;;;;;;;;;;14.70;72.40;;;;;;5115437;28;20362;-45
2022/06/12 13:39:54;;;;;;;;;;;14.70;72.50;;;;;;5115466;28;20028;-55
2022/06/12 13:42:26;;;;;;;;;;;14.70;72.60;;;;;;5115457;28;19911;-57
2022/06/12 13:44:55;;;;;;;;;;;14.70;72.70;;;;;;5115411;28;19915;-48
2022/06/12 13:47:33;;;;;;;;;;;14.70;72.80;;;;;;5115235;28;19915;-59
2022/06/12 13:50:12;;;;;;;;;;;14.60;72.80;;;;;;5115465;28;19910;-51
2022/06/12 13:52:45;;;;;;;;;;;14.60;72.90;;;;;;5115207;28;20307;-52
2022/06/12 13:55:27;;;;;;;;;;;14.60;72.90;;;;;;5115292;28;19953;-55
2022/06/12 13:57:54;;;;;;;;;;;14.60;73.10;;;;;;5115398;28;19919;-56
2022/06/12 14:00:36;;;;;;;;;;;14.50;73.10;;;;;;5115283;28;20294;-53
2022/06/12 14:03:03;;;;;;;;;;;14.60;73.10;;;;;;5114105;28;20385;-51
2022/06/12 14:05:32;;;;;;;;;;;14.60;73.20;;;;;;5115166;28;19916;-53
2022/06/12 14:08:01;;;;;;;;;;;14.50;73.20;;;;;;5114954;28;19988;-53
2022/06/12 14:10:30;;;;;;;;;;;14.50;73.30;;;;;;5114579;28;19915;-59
2022/06/12 14:12:58;;;;;;;;;;;14.50;73.40;;;;;;5114948;28;19915;-58
2022/06/12 14:15:25;;;;;;;;;;;14.50;73.40;;;;;;5114847;28;19938;-53
2022/06/12 14:17:53;;;;;;;;;;;14.50;73.50;;;;;;5114797;28;19961;-59
2022/06/12 14:20:25;;;;;;;;;;;14.50;73.60;;;;;;5115052;28;19943;-59
2022/06/12 14:22:55;;;;;;;;;;;14.40;73.50;;;;;;5114900;28;19907;-60
2022/06/12 14:25:45;;;;;;;;;;;14.50;73.60;;;;;;5114391;28;19916;-50
2022/06/12 14:28:14;;;;;;;;;;;14.40;73.50;;;;;;5114673;27;19908;-59
2022/06/12 14:30:44;;;;;;;;;;;14.40;73.60;;;;;;5114445;28;19908;-54
2022/06/12 14:33:23;;;;;;;;;;;14.40;73.60;;;;;;5113190;28;19943;-59
2022/06/12 14:35:49;;;;;;;;;;;14.40;73.60;;;;;;5114504;28;20242;-62
2022/06/12 14:38:17;;;;;;;;;;;14.40;73.60;;;;;;5114688;28;19907;-58
2022/06/12 14:40:44;;;;;;;;;;;14.40;73.60;;;;;;5114086;28;20328;-60
2022/06/12 14:43:12;;;;;;;;;;;14.40;73.60;;;;;;5114484;28;19990;-57
2022/06/12 14:45:59;;;;;;;;;;;14.30;73.60;;;;;;5114539;28;19969;-54
2022/06/12 14:48:28;;;;;;;;;;;14.40;73.60;;;;;;5113845;28;19951;-53
2022/06/12 14:50:55;;;;;;;;;;;14.30;73.60;;;;;;5114214;28;19943;-56
2022/06/12 14:53:22;;;;;;;;;;;14.30;73.70;;;;;;5114299;28;19908;-56
2022/06/12 14:55:49;;;;;;;;;;;14.30;73.70;;;;;;5114182;28;19908;-61
2022/06/12 14:58:22;;;;;;;;;;;14.30;73.70;;;;;;5114424;28;19970;-56
2022/06/12 15:00:49;;;;;;;;;;;14.30;73.70;;;;;;5114326;28;19915;-61